Cactus, Texas
Current Conditions -  °F | °C
As of 7:35 PM on Saturday 25 Oct 2014 (Local Time) from KDUX Reporting Station
NA  
Wind Chill: 72°   Ceiling: NA
Heat Index: 72°   Visibility: 10mi
Dew Point: 45°   Wind: 9mph
Humidity: 37%   Direction: 170°S
Pressure: 30.05"   Gusts: NA
Location:  36.05°N, 102°W
Report Text: KDUX 260035Z AUTO 17008KT 10SM 22/07 A3005 RMK AO2 T02220070
Loading
Personal Weather Stations






























Interactive Weather Map
Tropical Storm Tracking
New forecast layout! Learn more

10-Day Weather Forecast

Advertisements
Track Severe Weather on mobile